Flugplatz Elz

Für EDFY sind keine METAR/TAF Berichte vorhanden.
Es werden die Flugwettermeldungen vom Flugplatz Siegerland in 31 km Entfernung angezeigt.

Prognose für EDGS

vom 20.10. um 00:00 UTC

Zwischen 00:00 UTC und 00:00 UTC zeitweise

Sichtweite 3000 m

Regen


Zwischen 00:00 UTC und 00:00 UTC

Wind 8 kt aus 150°

Sichtweite 10 km oder mehr

aufgelockert bewölkt in 4000 ft

TAF EDGS 201700Z 2018/2103 15008KT 9999 SCT040 TEMPO 2018/2024 3000 RA
Impressum